sensor_id;sensor_type;location;lat;lon;timestamp;P1;durP1;ratioP1;P2;durP2;ratioP2
46777;SDS011;32536;47.128;8.746;2023-04-03T00:01:17;1.58;;;1.25;;
46777;SDS011;32536;47.128;8.746;2023-04-03T00:03:44;1.95;;;1.55;;
46777;SDS011;32536;47.128;8.746;2023-04-03T00:06:11;0.88;;;0.70;;
46777;SDS011;32536;47.128;8.746;2023-04-03T00:08:39;1.02;;;0.90;;
46777;SDS011;32536;47.128;8.746;2023-04-03T00:11:06;1.60;;;1.50;;
46777;SDS011;32536;47.128;8.746;2023-04-03T00:13:34;1.80;;;1.63;;
46777;SDS011;32536;47.128;8.746;2023-04-03T00:18:46;1.42;;;1.02;;
46777;SDS011;32536;47.128;8.746;2023-04-03T00:21:13;1.48;;;1.30;;
46777;SDS011;32536;47.128;8.746;2023-04-03T00:23:41;1.08;;;0.93;;
46777;SDS011;32536;47.128;8.746;2023-04-03T00:26:08;1.52;;;1.38;;
46777;SDS011;32536;47.128;8.746;2023-04-03T00:28:34;1.98;;;1.88;;
46777;SDS011;32536;47.128;8.746;2023-04-03T00:31:01;1.85;;;1.75;;
46777;SDS011;32536;47.128;8.746;2023-04-03T00:33:28;1.48;;;1.38;;
46777;SDS011;32536;47.128;8.746;2023-04-03T00:35:55;1.85;;;1.73;;
46777;SDS011;32536;47.128;8.746;2023-04-03T00:38:21;2.00;;;1.80;;
46777;SDS011;32536;47.128;8.746;2023-04-03T00:40:48;2.38;;;2.20;;
46777;SDS011;32536;47.128;8.746;2023-04-03T00:43:17;2.25;;;2.05;;
46777;SDS011;32536;47.128;8.746;2023-04-03T00:45:48;1.23;;;1.10;;
46777;SDS011;32536;47.128;8.746;2023-04-03T00:48:20;1.48;;;1.38;;
46777;SDS011;32536;47.128;8.746;2023-04-03T00:50:53;1.73;;;1.63;;
46777;SDS011;32536;47.128;8.746;2023-04-03T00:53:31;1.65;;;1.50;;
46777;SDS011;32536;47.128;8.746;2023-04-03T00:58:55;0.95;;;0.85;;
46777;SDS011;32536;47.128;8.746;2023-04-03T01:01:40;1.08;;;0.95;;
46777;SDS011;32536;47.128;8.746;2023-04-03T01:07:10;2.17;;;1.98;;
46777;SDS011;32536;47.128;8.746;2023-04-03T01:09:43;1.25;;;1.15;;
46777;SDS011;32536;47.128;8.746;2023-04-03T01:14:46;1.20;;;1.00;;
46777;SDS011;32536;47.128;8.746;2023-04-03T01:17:33;1.13;;;1.02;;
46777;SDS011;32536;47.128;8.746;2023-04-03T01:25:31;2.15;;;1.95;;
46777;SDS011;32536;47.128;8.746;2023-04-03T01:27:59;1.33;;;1.23;;
46777;SDS011;32536;47.128;8.746;2023-04-03T01:30:28;1.83;;;1.63;;
46777;SDS011;32536;47.128;8.746;2023-04-03T01:32:59;2.20;;;2.00;;
46777;SDS011;32536;47.128;8.746;2023-04-03T01:35:25;1.73;;;1.63;;
46777;SDS011;32536;47.128;8.746;2023-04-03T01:37:52;2.65;;;1.55;;
46777;SDS011;32536;47.128;8.746;2023-04-03T01:40:19;2.03;;;1.88;;
46777;SDS011;32536;47.128;8.746;2023-04-03T01:42:46;1.27;;;1.08;;
46777;SDS011;32536;47.128;8.746;2023-04-03T01:45:12;2.20;;;2.00;;
46777;SDS011;32536;47.128;8.746;2023-04-03T01:47:39;2.65;;;2.45;;
46777;SDS011;32536;47.128;8.746;2023-04-03T01:50:06;1.42;;;1.13;;
46777;SDS011;32536;47.128;8.746;2023-04-03T01:52:33;1.25;;;1.05;;
46777;SDS011;32536;47.128;8.746;2023-04-03T01:54:59;2.13;;;1.55;;
46777;SDS011;32536;47.128;8.746;2023-04-03T01:57:26;2.30;;;1.80;;
46777;SDS011;32536;47.128;8.746;2023-04-03T01:59:53;1.85;;;1.55;;
46777;SDS011;32536;47.128;8.746;2023-04-03T02:02:20;1.75;;;1.35;;
46777;SDS011;32536;47.128;8.746;2023-04-03T02:04:46;1.75;;;1.20;;
46777;SDS011;32536;47.128;8.746;2023-04-03T02:07:13;2.17;;;1.10;;
46777;SDS011;32536;47.128;8.746;2023-04-03T02:09:40;1.83;;;1.35;;
46777;SDS011;32536;47.128;8.746;2023-04-03T02:12:07;1.77;;;1.13;;
46777;SDS011;32536;47.128;8.746;2023-04-03T02:14:33;1.83;;;1.17;;
46777;SDS011;32536;47.128;8.746;2023-04-03T02:17:00;1.73;;;1.20;;
46777;SDS011;32536;47.128;8.746;2023-04-03T02:19:34;1.45;;;1.00;;
46777;SDS011;32536;47.128;8.746;2023-04-03T02:22:02;1.45;;;1.10;;
46777;SDS011;32536;47.128;8.746;2023-04-03T02:24:30;2.22;;;1.98;;
46777;SDS011;32536;47.128;8.746;2023-04-03T02:26:57;1.85;;;1.02;;
46777;SDS011;32536;47.128;8.746;2023-04-03T02:29:24;1.73;;;1.30;;
46777;SDS011;32536;47.128;8.746;2023-04-03T02:31:51;2.00;;;1.38;;
46777;SDS011;32536;47.128;8.746;2023-04-03T02:34:18;1.45;;;1.10;;
46777;SDS011;32536;47.128;8.746;2023-04-03T02:36:45;1.58;;;0.95;;
46777;SDS011;32536;47.128;8.746;2023-04-03T02:39:11;1.45;;;1.20;;
46777;SDS011;32536;47.128;8.746;2023-04-03T02:41:39;1.65;;;1.40;;
46777;SDS011;32536;47.128;8.746;2023-04-03T02:44:06;2.05;;;1.55;;
46777;SDS011;32536;47.128;8.746;2023-04-03T02:46:35;1.63;;;1.35;;
46777;SDS011;32536;47.128;8.746;2023-04-03T02:49:02;1.95;;;1.80;;
46777;SDS011;32536;47.128;8.746;2023-04-03T02:51:29;2.05;;;1.35;;
46777;SDS011;32536;47.128;8.746;2023-04-03T02:53:56;1.67;;;1.23;;
46777;SDS011;32536;47.128;8.746;2023-04-03T02:56:23;1.50;;;1.05;;
46777;SDS011;32536;47.128;8.746;2023-04-03T02:58:49;2.55;;;2.10;;
46777;SDS011;32536;47.128;8.746;2023-04-03T03:01:17;1.88;;;1.30;;
46777;SDS011;32536;47.128;8.746;2023-04-03T03:03:44;1.90;;;1.35;;
46777;SDS011;32536;47.128;8.746;2023-04-03T03:06:12;2.80;;;1.67;;
46777;SDS011;32536;47.128;8.746;2023-04-03T03:08:41;2.78;;;1.65;;
46777;SDS011;32536;47.128;8.746;2023-04-03T03:11:09;2.10;;;1.40;;
46777;SDS011;32536;47.128;8.746;2023-04-03T03:13:36;2.45;;;1.55;;
46777;SDS011;32536;47.128;8.746;2023-04-03T03:16:03;2.97;;;1.65;;
46777;SDS011;32536;47.128;8.746;2023-04-03T03:18:30;1.77;;;1.30;;
46777;SDS011;32536;47.128;8.746;2023-04-03T03:20:58;2.55;;;1.52;;
46777;SDS011;32536;47.128;8.746;2023-04-03T03:23:27;2.42;;;1.60;;
46777;SDS011;32536;47.128;8.746;2023-04-03T03:25:56;2.08;;;1.25;;
46777;SDS011;32536;47.128;8.746;2023-04-03T03:28:31;2.08;;;1.48;;
46777;SDS011;32536;47.128;8.746;2023-04-03T03:30:58;1.92;;;1.52;;
46777;SDS011;32536;47.128;8.746;2023-04-03T03:33:25;1.88;;;1.25;;
46777;SDS011;32536;47.128;8.746;2023-04-03T03:35:53;2.33;;;1.45;;
46777;SDS011;32536;47.128;8.746;2023-04-03T03:38:20;2.42;;;2.22;;
46777;SDS011;32536;47.128;8.746;2023-04-03T03:40:48;1.45;;;1.17;;
46777;SDS011;32536;47.128;8.746;2023-04-03T03:43:15;1.55;;;0.93;;
46777;SDS011;32536;47.128;8.746;2023-04-03T03:45:43;2.15;;;1.33;;
46777;SDS011;32536;47.128;8.746;2023-04-03T03:48:11;2.22;;;1.20;;
46777;SDS011;32536;47.128;8.746;2023-04-03T03:50:38;2.50;;;1.33;;
46777;SDS011;32536;47.128;8.746;2023-04-03T03:53:05;2.35;;;1.23;;
46777;SDS011;32536;47.128;8.746;2023-04-03T03:55:31;2.90;;;1.73;;
46777;SDS011;32536;47.128;8.746;2023-04-03T03:57:58;3.75;;;1.40;;
46777;SDS011;32536;47.128;8.746;2023-04-03T04:00:26;3.08;;;2.50;;
46777;SDS011;32536;47.128;8.746;2023-04-03T04:02:53;2.50;;;1.83;;
46777;SDS011;32536;47.128;8.746;2023-04-03T04:05:21;2.00;;;1.55;;
46777;SDS011;32536;47.128;8.746;2023-04-03T04:07:48;2.10;;;1.55;;
46777;SDS011;32536;47.128;8.746;2023-04-03T04:10:15;2.58;;;1.55;;
46777;SDS011;32536;47.128;8.746;2023-04-03T04:12:42;2.13;;;1.20;;
46777;SDS011;32536;47.128;8.746;2023-04-03T04:15:08;3.22;;;2.13;;
46777;SDS011;32536;47.128;8.746;2023-04-03T04:17:36;2.88;;;1.85;;
46777;SDS011;32536;47.128;8.746;2023-04-03T04:20:03;3.65;;;1.85;;
46777;SDS011;32536;47.128;8.746;2023-04-03T04:22:31;3.50;;;2.15;;
46777;SDS011;32536;47.128;8.746;2023-04-03T04:24:57;3.53;;;2.90;;
46777;SDS011;32536;47.128;8.746;2023-04-03T04:27:24;2.72;;;1.83;;
46777;SDS011;32536;47.128;8.746;2023-04-03T04:29:51;2.45;;;1.65;;
46777;SDS011;32536;47.128;8.746;2023-04-03T04:32:17;3.13;;;1.95;;
46777;SDS011;32536;47.128;8.746;2023-04-03T04:34:44;2.72;;;2.40;;
46777;SDS011;32536;47.128;8.746;2023-04-03T04:37:11;2.53;;;1.83;;
46777;SDS011;32536;47.128;8.746;2023-04-03T04:39:37;3.30;;;1.65;;
46777;SDS011;32536;47.128;8.746;2023-04-03T04:42:04;2.78;;;2.17;;
46777;SDS011;32536;47.128;8.746;2023-04-03T04:44:32;2.80;;;2.35;;
46777;SDS011;32536;47.128;8.746;2023-04-03T04:46:59;1.90;;;1.25;;
46777;SDS011;32536;47.128;8.746;2023-04-03T04:49:26;2.45;;;1.75;;
46777;SDS011;32536;47.128;8.746;2023-04-03T04:51:52;2.05;;;1.35;;
46777;SDS011;32536;47.128;8.746;2023-04-03T04:54:19;2.72;;;2.05;;
46777;SDS011;32536;47.128;8.746;2023-04-03T04:56:46;2.30;;;1.63;;
46777;SDS011;32536;47.128;8.746;2023-04-03T04:59:13;2.60;;;1.65;;
46777;SDS011;32536;47.128;8.746;2023-04-03T05:01:39;2.13;;;1.40;;
46777;SDS011;32536;47.128;8.746;2023-04-03T05:04:06;3.05;;;1.73;;
46777;SDS011;32536;47.128;8.746;2023-04-03T05:06:33;2.65;;;2.08;;
46777;SDS011;32536;47.128;8.746;2023-04-03T05:09:00;2.30;;;1.65;;
46777;SDS011;32536;47.128;8.746;2023-04-03T05:11:27;2.25;;;1.55;;
46777;SDS011;32536;47.128;8.746;2023-04-03T05:13:54;3.35;;;2.75;;
46777;SDS011;32536;47.128;8.746;2023-04-03T05:16:21;3.65;;;1.55;;
46777;SDS011;32536;47.128;8.746;2023-04-03T05:18:47;2.67;;;1.63;;
46777;SDS011;32536;47.128;8.746;2023-04-03T05:21:14;2.65;;;1.63;;
46777;SDS011;32536;47.128;8.746;2023-04-03T05:23:41;2.50;;;1.40;;
46777;SDS011;32536;47.128;8.746;2023-04-03T05:26:08;2.47;;;1.45;;
46777;SDS011;32536;47.128;8.746;2023-04-03T05:28:34;3.08;;;2.33;;
46777;SDS011;32536;47.128;8.746;2023-04-03T05:31:02;1.88;;;1.23;;
46777;SDS011;32536;47.128;8.746;2023-04-03T05:33:28;2.97;;;1.88;;
46777;SDS011;32536;47.128;8.746;2023-04-03T05:35:55;2.58;;;1.80;;
46777;SDS011;32536;47.128;8.746;2023-04-03T05:38:22;2.90;;;1.73;;
46777;SDS011;32536;47.128;8.746;2023-04-03T05:40:48;3.05;;;1.55;;
46777;SDS011;32536;47.128;8.746;2023-04-03T05:43:15;2.80;;;1.63;;
46777;SDS011;32536;47.128;8.746;2023-04-03T05:45:42;2.80;;;1.65;;
46777;SDS011;32536;47.128;8.746;2023-04-03T05:48:09;2.28;;;1.35;;
46777;SDS011;32536;47.128;8.746;2023-04-03T05:50:36;2.90;;;1.40;;
46777;SDS011;32536;47.128;8.746;2023-04-03T05:53:06;1.90;;;1.27;;
46777;SDS011;32536;47.128;8.746;2023-04-03T05:55:47;2.65;;;1.52;;
46777;SDS011;32536;47.128;8.746;2023-04-03T05:58:13;2.42;;;1.55;;
46777;SDS011;32536;47.128;8.746;2023-04-03T06:00:40;2.40;;;1.85;;
46777;SDS011;32536;47.128;8.746;2023-04-03T06:03:07;3.25;;;1.52;;
46777;SDS011;32536;47.128;8.746;2023-04-03T06:05:34;2.28;;;1.40;;
46777;SDS011;32536;47.128;8.746;2023-04-03T06:08:00;2.60;;;1.85;;
46777;SDS011;32536;47.128;8.746;2023-04-03T06:10:28;3.45;;;3.10;;
46777;SDS011;32536;47.128;8.746;2023-04-03T06:12:56;2.85;;;1.85;;
46777;SDS011;32536;47.128;8.746;2023-04-03T06:15:22;2.92;;;1.73;;
46777;SDS011;32536;47.128;8.746;2023-04-03T06:17:50;4.05;;;3.10;;
46777;SDS011;32536;47.128;8.746;2023-04-03T06:20:17;3.55;;;1.55;;
46777;SDS011;32536;47.128;8.746;2023-04-03T06:22:43;2.47;;;1.27;;
46777;SDS011;32536;47.128;8.746;2023-04-03T06:25:10;2.03;;;1.35;;
46777;SDS011;32536;47.128;8.746;2023-04-03T06:27:37;2.65;;;1.65;;
46777;SDS011;32536;47.128;8.746;2023-04-03T06:30:05;2.58;;;1.88;;
46777;SDS011;32536;47.128;8.746;2023-04-03T06:32:33;4.50;;;3.03;;
46777;SDS011;32536;47.128;8.746;2023-04-03T06:34:59;3.00;;;1.65;;
46777;SDS011;32536;47.128;8.746;2023-04-03T06:37:44;2.45;;;1.83;;
46777;SDS011;32536;47.128;8.746;2023-04-03T06:40:21;3.15;;;2.08;;
46777;SDS011;32536;47.128;8.746;2023-04-03T06:42:50;4.18;;;2.30;;
46777;SDS011;32536;47.128;8.746;2023-04-03T06:45:17;2.80;;;1.70;;
46777;SDS011;32536;47.128;8.746;2023-04-03T06:47:44;3.33;;;1.95;;
46777;SDS011;32536;47.128;8.746;2023-04-03T06:50:11;2.67;;;1.55;;
46777;SDS011;32536;47.128;8.746;2023-04-03T06:52:40;3.85;;;2.42;;
46777;SDS011;32536;47.128;8.746;2023-04-03T06:55:07;4.22;;;3.28;;
46777;SDS011;32536;47.128;8.746;2023-04-03T06:57:35;3.80;;;2.33;;
46777;SDS011;32536;47.128;8.746;2023-04-03T07:00:03;3.03;;;2.05;;
46777;SDS011;32536;47.128;8.746;2023-04-03T07:02:31;2.97;;;1.67;;
46777;SDS011;32536;47.128;8.746;2023-04-03T07:04:58;3.10;;;1.80;;
46777;SDS011;32536;47.128;8.746;2023-04-03T07:07:25;2.45;;;1.42;;
46777;SDS011;32536;47.128;8.746;2023-04-03T07:09:51;3.60;;;2.63;;
46777;SDS011;32536;47.128;8.746;2023-04-03T07:12:18;4.57;;;3.13;;
46777;SDS011;32536;47.128;8.746;2023-04-03T07:14:45;3.38;;;2.13;;
46777;SDS011;32536;47.128;8.746;2023-04-03T07:17:12;3.53;;;1.88;;
46777;SDS011;32536;47.128;8.746;2023-04-03T07:19:39;2.80;;;1.65;;
46777;SDS011;32536;47.128;8.746;2023-04-03T07:22:05;3.20;;;2.28;;
46777;SDS011;32536;47.128;8.746;2023-04-03T07:24:33;3.28;;;1.73;;
46777;SDS011;32536;47.128;8.746;2023-04-03T07:27:00;2.95;;;1.83;;
46777;SDS011;32536;47.128;8.746;2023-04-03T07:29:28;2.88;;;1.67;;
46777;SDS011;32536;47.128;8.746;2023-04-03T07:31:55;3.22;;;1.80;;
46777;SDS011;32536;47.128;8.746;2023-04-03T07:34:22;3.25;;;2.00;;
46777;SDS011;32536;47.128;8.746;2023-04-03T07:36:49;3.60;;;1.73;;
46777;SDS011;32536;47.128;8.746;2023-04-03T07:39:15;3.63;;;1.85;;
46777;SDS011;32536;47.128;8.746;2023-04-03T07:41:42;3.40;;;2.60;;
46777;SDS011;32536;47.128;8.746;2023-04-03T07:44:09;3.60;;;1.92;;
46777;SDS011;32536;47.128;8.746;2023-04-03T07:46:36;3.53;;;2.03;;
46777;SDS011;32536;47.128;8.746;2023-04-03T07:49:04;3.72;;;2.40;;
46777;SDS011;32536;47.128;8.746;2023-04-03T07:51:30;4.60;;;2.05;;
46777;SDS011;32536;47.128;8.746;2023-04-03T07:53:57;4.30;;;2.92;;
46777;SDS011;32536;47.128;8.746;2023-04-03T07:56:30;3.47;;;2.40;;
46777;SDS011;32536;47.128;8.746;2023-04-03T07:58:57;3.95;;;2.80;;
46777;SDS011;32536;47.128;8.746;2023-04-03T08:01:24;3.83;;;2.17;;
46777;SDS011;32536;47.128;8.746;2023-04-03T08:03:51;4.22;;;2.97;;
46777;SDS011;32536;47.128;8.746;2023-04-03T08:06:17;3.53;;;2.05;;
46777;SDS011;32536;47.128;8.746;2023-04-03T08:08:44;3.78;;;2.20;;
46777;SDS011;32536;47.128;8.746;2023-04-03T08:11:11;3.70;;;2.25;;
46777;SDS011;32536;47.128;8.746;2023-04-03T08:13:38;4.30;;;2.00;;
46777;SDS011;32536;47.128;8.746;2023-04-03T08:16:07;3.20;;;1.80;;
46777;SDS011;32536;47.128;8.746;2023-04-03T08:18:42;3.05;;;2.03;;
46777;SDS011;32536;47.128;8.746;2023-04-03T08:21:09;3.53;;;2.47;;
46777;SDS011;32536;47.128;8.746;2023-04-03T08:23:38;6.68;;;2.25;;
46777;SDS011;32536;47.128;8.746;2023-04-03T08:26:07;3.33;;;2.40;;
46777;SDS011;32536;47.128;8.746;2023-04-03T08:28:42;2.90;;;2.22;;
46777;SDS011;32536;47.128;8.746;2023-04-03T08:31:10;2.67;;;1.67;;
46777;SDS011;32536;47.128;8.746;2023-04-03T08:33:40;3.72;;;2.05;;
46777;SDS011;32536;47.128;8.746;2023-04-03T08:36:14;3.25;;;1.95;;
46777;SDS011;32536;47.128;8.746;2023-04-03T08:38:48;5.72;;;2.30;;
46777;SDS011;32536;47.128;8.746;2023-04-03T08:47:24;3.35;;;3.03;;
46777;SDS011;32536;47.128;8.746;2023-04-03T08:50:16;3.13;;;2.15;;
46777;SDS011;32536;47.128;8.746;2023-04-03T08:52:48;3.42;;;2.33;;
46777;SDS011;32536;47.128;8.746;2023-04-03T08:58:07;3.92;;;2.95;;
46777;SDS011;32536;47.128;8.746;2023-04-03T09:03:53;3.42;;;1.90;;
46777;SDS011;32536;47.128;8.746;2023-04-03T09:06:25;2.80;;;1.73;;
46777;SDS011;32536;47.128;8.746;2023-04-03T09:09:33;2.58;;;1.75;;
46777;SDS011;32536;47.128;8.746;2023-04-03T09:12:12;3.88;;;2.80;;
46777;SDS011;32536;47.128;8.746;2023-04-03T09:14:51;3.38;;;2.60;;
46777;SDS011;32536;47.128;8.746;2023-04-03T09:23:39;5.38;;;2.78;;
46777;SDS011;32536;47.128;8.746;2023-04-03T09:26:23;5.53;;;2.85;;
46777;SDS011;32536;47.128;8.746;2023-04-03T09:28:56;4.45;;;2.72;;
46777;SDS011;32536;47.128;8.746;2023-04-03T09:31:36;4.18;;;2.55;;
46777;SDS011;32536;47.128;8.746;2023-04-03T09:34:08;3.67;;;1.92;;
46777;SDS011;32536;47.128;8.746;2023-04-03T09:36:47;3.83;;;2.35;;
46777;SDS011;32536;47.128;8.746;2023-04-03T09:39:18;3.45;;;2.13;;
46777;SDS011;32536;47.128;8.746;2023-04-03T09:44:56;4.00;;;1.98;;
46777;SDS011;32536;47.128;8.746;2023-04-03T09:52:44;3.72;;;2.92;;
46777;SDS011;32536;47.128;8.746;2023-04-03T09:55:18;4.53;;;2.63;;
46777;SDS011;32536;47.128;8.746;2023-04-03T09:57:53;4.55;;;3.55;;
46777;SDS011;32536;47.128;8.746;2023-04-03T10:00:30;5.32;;;3.47;;
46777;SDS011;32536;47.128;8.746;2023-04-03T10:03:02;4.22;;;2.58;;
46777;SDS011;32536;47.128;8.746;2023-04-03T10:10:42;5.13;;;3.45;;
46777;SDS011;32536;47.128;8.746;2023-04-03T10:16:03;4.25;;;2.55;;
46777;SDS011;32536;47.128;8.746;2023-04-03T10:18:42;3.80;;;2.47;;
46777;SDS011;32536;47.128;8.746;2023-04-03T10:21:21;3.80;;;2.03;;
46777;SDS011;32536;47.128;8.746;2023-04-03T10:27:04;3.55;;;1.85;;
46777;SDS011;32536;47.128;8.746;2023-04-03T10:29:45;3.60;;;2.65;;
46777;SDS011;32536;47.128;8.746;2023-04-03T10:32:57;4.30;;;2.20;;
46777;SDS011;32536;47.128;8.746;2023-04-03T10:41:10;4.78;;;3.42;;
46777;SDS011;32536;47.128;8.746;2023-04-03T10:43:59;3.38;;;1.95;;
46777;SDS011;32536;47.128;8.746;2023-04-03T10:47:11;4.10;;;3.60;;
46777;SDS011;32536;47.128;8.746;2023-04-03T10:55:36;4.78;;;3.10;;
46777;SDS011;32536;47.128;8.746;2023-04-03T10:58:39;4.28;;;2.40;;
46777;SDS011;32536;47.128;8.746;2023-04-03T11:01:16;4.15;;;2.92;;
46777;SDS011;32536;47.128;8.746;2023-04-03T11:03:54;4.53;;;2.67;;
46777;SDS011;32536;47.128;8.746;2023-04-03T11:06:26;5.25;;;2.97;;
46777;SDS011;32536;47.128;8.746;2023-04-03T11:09:05;5.20;;;2.72;;
46777;SDS011;32536;47.128;8.746;2023-04-03T11:12:00;4.75;;;3.13;;
46777;SDS011;32536;47.128;8.746;2023-04-03T11:14:37;4.43;;;2.38;;
46777;SDS011;32536;47.128;8.746;2023-04-03T11:22:17;3.15;;;1.85;;
46777;SDS011;32536;47.128;8.746;2023-04-03T11:27:38;3.72;;;1.98;;
46777;SDS011;32536;47.128;8.746;2023-04-03T11:30:18;4.68;;;3.70;;
46777;SDS011;32536;47.128;8.746;2023-04-03T11:35:47;3.70;;;2.15;;
46777;SDS011;32536;47.128;8.746;2023-04-03T11:38:21;3.70;;;2.00;;
46777;SDS011;32536;47.128;8.746;2023-04-03T11:40:56;4.40;;;2.35;;
46777;SDS011;32536;47.128;8.746;2023-04-03T11:43:25;3.53;;;2.35;;
46777;SDS011;32536;47.128;8.746;2023-04-03T11:45:57;4.20;;;2.17;;
46777;SDS011;32536;47.128;8.746;2023-04-03T11:50:59;4.55;;;2.75;;
46777;SDS011;32536;47.128;8.746;2023-04-03T11:56:49;5.95;;;3.28;;
46777;SDS011;32536;47.128;8.746;2023-04-03T12:01:45;4.28;;;2.63;;
46777;SDS011;32536;47.128;8.746;2023-04-03T12:04:26;4.13;;;3.05;;
46777;SDS011;32536;47.128;8.746;2023-04-03T12:07:18;5.38;;;2.85;;
46777;SDS011;32536;47.128;8.746;2023-04-03T12:12:28;5.68;;;3.35;;
46777;SDS011;32536;47.128;8.746;2023-04-03T12:15:21;6.47;;;3.22;;
46777;SDS011;32536;47.128;8.746;2023-04-03T12:35:05;4.13;;;2.65;;
46777;SDS011;32536;47.128;8.746;2023-04-03T12:48:39;3.65;;;2.45;;
46777;SDS011;32536;47.128;8.746;2023-04-03T12:54:14;3.65;;;2.05;;
46777;SDS011;32536;47.128;8.746;2023-04-03T12:56:48;3.67;;;2.10;;
46777;SDS011;32536;47.128;8.746;2023-04-03T12:59:26;4.05;;;1.75;;
46777;SDS011;32536;47.128;8.746;2023-04-03T13:01:56;3.55;;;2.90;;
46777;SDS011;32536;47.128;8.746;2023-04-03T13:04:26;4.88;;;2.88;;
46777;SDS011;32536;47.128;8.746;2023-04-03T13:06:55;4.18;;;2.90;;
46777;SDS011;32536;47.128;8.746;2023-04-03T13:09:29;3.92;;;2.38;;
46777;SDS011;32536;47.128;8.746;2023-04-03T13:11:59;4.03;;;2.90;;
46777;SDS011;32536;47.128;8.746;2023-04-03T13:14:34;4.63;;;2.25;;
46777;SDS011;32536;47.128;8.746;2023-04-03T13:17:14;3.83;;;1.95;;
46777;SDS011;32536;47.128;8.746;2023-04-03T13:19:43;5.10;;;3.30;;
46777;SDS011;32536;47.128;8.746;2023-04-03T13:22:23;3.92;;;2.85;;
46777;SDS011;32536;47.128;8.746;2023-04-03T13:25:09;3.97;;;2.25;;
46777;SDS011;32536;47.128;8.746;2023-04-03T13:27:39;3.38;;;1.98;;
46777;SDS011;32536;47.128;8.746;2023-04-03T13:30:29;4.90;;;2.55;;
46777;SDS011;32536;47.128;8.746;2023-04-03T13:33:00;4.32;;;2.58;;
46777;SDS011;32536;47.128;8.746;2023-04-03T13:40:54;3.88;;;2.80;;
46777;SDS011;32536;47.128;8.746;2023-04-03T13:43:26;2.83;;;1.85;;
46777;SDS011;32536;47.128;8.746;2023-04-03T13:45:58;3.17;;;1.98;;
46777;SDS011;32536;47.128;8.746;2023-04-03T13:48:49;3.97;;;2.03;;
46777;SDS011;32536;47.128;8.746;2023-04-03T13:59:24;3.28;;;1.73;;
46777;SDS011;32536;47.128;8.746;2023-04-03T14:06:59;2.67;;;1.90;;
46777;SDS011;32536;47.128;8.746;2023-04-03T14:09:26;3.83;;;2.13;;
46777;SDS011;32536;47.128;8.746;2023-04-03T14:11:55;4.38;;;2.78;;
46777;SDS011;32536;47.128;8.746;2023-04-03T14:14:46;4.95;;;2.80;;
46777;SDS011;32536;47.128;8.746;2023-04-03T14:17:15;4.90;;;2.95;;
46777;SDS011;32536;47.128;8.746;2023-04-03T14:19:45;3.85;;;1.95;;
46777;SDS011;32536;47.128;8.746;2023-04-03T14:24:39;4.88;;;2.55;;
46777;SDS011;32536;47.128;8.746;2023-04-03T14:27:11;3.80;;;2.13;;
46777;SDS011;32536;47.128;8.746;2023-04-03T14:29:45;4.45;;;2.35;;
46777;SDS011;32536;47.128;8.746;2023-04-03T14:32:14;5.22;;;2.33;;
46777;SDS011;32536;47.128;8.746;2023-04-03T14:34:44;4.03;;;2.08;;
46777;SDS011;32536;47.128;8.746;2023-04-03T14:37:13;4.57;;;2.47;;
46777;SDS011;32536;47.128;8.746;2023-04-03T14:39:44;4.90;;;3.13;;
46777;SDS011;32536;47.128;8.746;2023-04-03T14:42:19;4.85;;;1.95;;
46777;SDS011;32536;47.128;8.746;2023-04-03T14:44:51;4.45;;;2.63;;
46777;SDS011;32536;47.128;8.746;2023-04-03T14:47:19;3.20;;;1.85;;
46777;SDS011;32536;47.128;8.746;2023-04-03T14:49:51;5.10;;;2.17;;
46777;SDS011;32536;47.128;8.746;2023-04-03T14:52:23;4.28;;;2.80;;
46777;SDS011;32536;47.128;8.746;2023-04-03T14:54:56;4.07;;;2.60;;
46777;SDS011;32536;47.128;8.746;2023-04-03T14:57:24;4.13;;;2.05;;
46777;SDS011;32536;47.128;8.746;2023-04-03T14:59:53;4.40;;;2.13;;
46777;SDS011;32536;47.128;8.746;2023-04-03T15:04:59;4.88;;;2.63;;
46777;SDS011;32536;47.128;8.746;2023-04-03T15:07:30;4.00;;;2.63;;
46777;SDS011;32536;47.128;8.746;2023-04-03T15:10:14;5.00;;;3.50;;
46777;SDS011;32536;47.128;8.746;2023-04-03T15:12:41;4.97;;;2.83;;
46777;SDS011;32536;47.128;8.746;2023-04-03T15:15:09;4.05;;;2.55;;
46777;SDS011;32536;47.128;8.746;2023-04-03T15:17:36;4.93;;;2.38;;
46777;SDS011;32536;47.128;8.746;2023-04-03T15:20:03;5.38;;;2.42;;
46777;SDS011;32536;47.128;8.746;2023-04-03T15:22:42;4.50;;;2.65;;
46777;SDS011;32536;47.128;8.746;2023-04-03T15:25:09;5.13;;;3.17;;
46777;SDS011;32536;47.128;8.746;2023-04-03T15:27:36;4.35;;;2.53;;
46777;SDS011;32536;47.128;8.746;2023-04-03T15:30:05;4.50;;;2.95;;
46777;SDS011;32536;47.128;8.746;2023-04-03T15:32:37;4.57;;;3.45;;
46777;SDS011;32536;47.128;8.746;2023-04-03T15:35:04;5.28;;;3.50;;
46777;SDS011;32536;47.128;8.746;2023-04-03T15:37:31;5.47;;;3.03;;
46777;SDS011;32536;47.128;8.746;2023-04-03T15:39:58;6.90;;;3.70;;
46777;SDS011;32536;47.128;8.746;2023-04-03T15:42:25;5.72;;;3.28;;
46777;SDS011;32536;47.128;8.746;2023-04-03T15:44:52;6.07;;;3.55;;
46777;SDS011;32536;47.128;8.746;2023-04-03T15:47:19;5.35;;;2.80;;
46777;SDS011;32536;47.128;8.746;2023-04-03T15:49:45;6.03;;;3.50;;
46777;SDS011;32536;47.128;8.746;2023-04-03T15:52:12;5.47;;;3.55;;
46777;SDS011;32536;47.128;8.746;2023-04-03T15:54:39;5.32;;;3.03;;
46777;SDS011;32536;47.128;8.746;2023-04-03T15:57:06;4.95;;;2.75;;
46777;SDS011;32536;47.128;8.746;2023-04-03T15:59:32;5.32;;;2.95;;
46777;SDS011;32536;47.128;8.746;2023-04-03T16:01:59;6.07;;;4.10;;
46777;SDS011;32536;47.128;8.746;2023-04-03T16:04:30;5.43;;;3.17;;
46777;SDS011;32536;47.128;8.746;2023-04-03T16:07:02;5.93;;;4.30;;
46777;SDS011;32536;47.128;8.746;2023-04-03T16:09:30;4.28;;;2.72;;
46777;SDS011;32536;47.128;8.746;2023-04-03T16:11:59;6.22;;;3.63;;
46777;SDS011;32536;47.128;8.746;2023-04-03T16:14:26;4.53;;;2.53;;
46777;SDS011;32536;47.128;8.746;2023-04-03T16:16:53;6.38;;;3.20;;
46777;SDS011;32536;47.128;8.746;2023-04-03T16:19:20;6.05;;;4.03;;
46777;SDS011;32536;47.128;8.746;2023-04-03T16:21:47;4.72;;;2.88;;
46777;SDS011;32536;47.128;8.746;2023-04-03T16:24:14;5.43;;;3.20;;
46777;SDS011;32536;47.128;8.746;2023-04-03T16:26:40;4.78;;;2.75;;
46777;SDS011;32536;47.128;8.746;2023-04-03T16:29:07;5.63;;;3.17;;
46777;SDS011;32536;47.128;8.746;2023-04-03T16:31:34;6.47;;;3.33;;
46777;SDS011;32536;47.128;8.746;2023-04-03T16:34:01;5.20;;;2.92;;
46777;SDS011;32536;47.128;8.746;2023-04-03T16:36:28;4.97;;;2.90;;
46777;SDS011;32536;47.128;8.746;2023-04-03T16:38:54;5.53;;;3.85;;
46777;SDS011;32536;47.128;8.746;2023-04-03T16:41:21;5.32;;;3.13;;
46777;SDS011;32536;47.128;8.746;2023-04-03T16:43:48;5.90;;;3.33;;
46777;SDS011;32536;47.128;8.746;2023-04-03T16:46:16;5.90;;;5.28;;
46777;SDS011;32536;47.128;8.746;2023-04-03T16:48:42;4.70;;;2.72;;
46777;SDS011;32536;47.128;8.746;2023-04-03T16:51:09;5.05;;;2.97;;
46777;SDS011;32536;47.128;8.746;2023-04-03T16:53:37;5.03;;;3.20;;
46777;SDS011;32536;47.128;8.746;2023-04-03T16:56:03;4.32;;;2.28;;
46777;SDS011;32536;47.128;8.746;2023-04-03T16:58:31;4.65;;;3.33;;
46777;SDS011;32536;47.128;8.746;2023-04-03T17:00:57;5.15;;;3.55;;
46777;SDS011;32536;47.128;8.746;2023-04-03T17:03:24;4.32;;;2.30;;
46777;SDS011;32536;47.128;8.746;2023-04-03T17:05:51;5.32;;;3.58;;
46777;SDS011;32536;47.128;8.746;2023-04-03T17:08:19;5.18;;;2.92;;
46777;SDS011;32536;47.128;8.746;2023-04-03T17:10:46;4.78;;;2.65;;
46777;SDS011;32536;47.128;8.746;2023-04-03T17:13:13;6.95;;;4.05;;
46777;SDS011;32536;47.128;8.746;2023-04-03T17:15:40;4.90;;;3.33;;
46777;SDS011;32536;47.128;8.746;2023-04-03T17:18:07;4.55;;;3.15;;
46777;SDS011;32536;47.128;8.746;2023-04-03T17:20:34;4.57;;;2.47;;
46777;SDS011;32536;47.128;8.746;2023-04-03T17:23:03;4.57;;;3.08;;
46777;SDS011;32536;47.128;8.746;2023-04-03T17:25:31;5.00;;;3.47;;
46777;SDS011;32536;47.128;8.746;2023-04-03T17:27:57;6.28;;;3.63;;